createdAt,value
2016-07-17T00:00:08.344Z,968.98
2016-07-17T00:01:08.351Z,968.99
2016-07-17T00:02:08.366Z,968.99
2016-07-17T00:03:08.369Z,968.95
2016-07-17T00:04:08.376Z,968.95
2016-07-17T00:05:08.386Z,968.91
2016-07-17T00:06:08.393Z,968.92
2016-07-17T00:07:08.395Z,968.9
2016-07-17T00:08:08.408Z,968.87
2016-07-17T00:09:08.410Z,968.87
2016-07-17T00:10:08.417Z,968.89
2016-07-17T00:11:08.423Z,968.86
2016-07-17T00:12:08.432Z,968.88
2016-07-17T00:13:08.448Z,968.89
2016-07-17T00:14:08.451Z,968.84
2016-07-17T00:15:08.465Z,968.83
2016-07-17T00:16:08.466Z,968.8
2016-07-17T00:17:08.471Z,968.79
2016-07-17T00:18:08.507Z,968.8
2016-07-17T00:19:08.496Z,968.79
2016-07-17T00:20:08.503Z,968.81
2016-07-17T00:21:08.510Z,968.83
2016-07-17T00:22:08.512Z,968.8
2016-07-17T00:23:08.526Z,968.78
2016-07-17T00:24:08.537Z,968.76
2016-07-17T00:25:08.544Z,968.78
2016-07-17T00:26:08.548Z,968.74
2016-07-17T00:27:08.560Z,968.75
2016-07-17T00:28:08.567Z,968.72
2016-07-17T00:29:08.567Z,968.76
2016-07-17T00:30:08.582Z,968.76
2016-07-17T00:31:08.587Z,968.72
2016-07-17T00:32:08.593Z,968.74
2016-07-17T00:33:08.598Z,968.74
2016-07-17T00:34:08.617Z,968.74
2016-07-17T00:35:08.616Z,968.74
2016-07-17T00:36:08.634Z,968.72
2016-07-17T00:37:08.634Z,968.73
2016-07-17T00:38:08.648Z,968.73
2016-07-17T00:39:08.657Z,968.72
2016-07-17T00:40:08.656Z,968.7
2016-07-17T00:41:08.666Z,968.71
2016-07-17T00:42:08.677Z,968.68
2016-07-17T00:43:08.679Z,968.71
2016-07-17T00:44:08.690Z,968.72
2016-07-17T00:45:08.703Z,968.71
2016-07-17T00:46:08.710Z,968.68
2016-07-17T00:47:08.719Z,968.68
2016-07-17T00:48:08.728Z,968.67
2016-07-17T00:49:08.734Z,968.66
2016-07-17T00:50:08.746Z,968.65
2016-07-17T00:51:08.743Z,968.66
2016-07-17T00:52:08.759Z,968.62
2016-07-17T00:53:08.766Z,968.62
2016-07-17T00:54:08.768Z,968.65
2016-07-17T00:55:08.778Z,968.65
2016-07-17T00:56:08.782Z,968.62
2016-07-17T00:57:08.800Z,968.64
2016-07-17T00:58:08.809Z,968.65
2016-07-17T00:59:08.815Z,968.62
2016-07-17T01:00:08.821Z,968.61
2016-07-17T01:01:08.822Z,968.61
2016-07-17T01:02:08.841Z,968.64
2016-07-17T01:03:08.846Z,968.59
2016-07-17T01:04:08.848Z,968.61
2016-07-17T01:05:08.856Z,968.6
2016-07-17T01:06:08.869Z,968.61
2016-07-17T01:07:08.872Z,968.62
2016-07-17T01:08:08.880Z,968.6
2016-07-17T01:09:08.905Z,968.59
2016-07-17T01:10:08.902Z,968.59
2016-07-17T01:11:08.908Z,968.59
2016-07-17T01:12:08.911Z,968.58
2016-07-17T01:13:08.926Z,968.6
2016-07-17T01:14:08.934Z,968.59
2016-07-17T01:15:08.934Z,968.59
2016-07-17T01:16:08.951Z,968.59
2016-07-17T01:17:08.952Z,968.57
2016-07-17T01:18:08.967Z,968.54
2016-07-17T01:19:08.976Z,968.52
2016-07-17T01:20:08.977Z,968.55
2016-07-17T01:21:08.984Z,968.54
2016-07-17T01:22:08.993Z,968.53
2016-07-17T01:23:08.998Z,968.51
2016-07-17T01:24:09.015Z,968.47
2016-07-17T01:25:09.023Z,968.46
2016-07-17T01:26:09.021Z,968.46
2016-07-17T01:27:09.031Z,968.44
2016-07-17T01:28:09.045Z,968.42
2016-07-17T01:29:09.055Z,968.43
2016-07-17T01:30:09.063Z,968.4
2016-07-17T01:31:09.070Z,968.41
2016-07-17T01:32:09.071Z,968.42
2016-07-17T01:33:09.080Z,968.42
2016-07-17T01:34:09.088Z,968.43
2016-07-17T01:35:09.096Z,968.4
2016-07-17T01:36:09.101Z,968.41
2016-07-17T01:37:09.116Z,968.41
2016-07-17T01:38:09.121Z,968.41
2016-07-17T01:39:09.133Z,968.42
2016-07-17T01:40:09.143Z,968.38
2016-07-17T01:41:09.142Z,968.37
2016-07-17T01:42:09.158Z,968.36
2016-07-17T01:43:09.167Z,968.38
2016-07-17T01:44:09.167Z,968.42
2016-07-17T01:45:09.180Z,968.41
2016-07-17T01:46:09.189Z,968.39
2016-07-17T01:47:09.191Z,968.33
2016-07-17T01:48:09.198Z,968.36
2016-07-17T01:49:09.214Z,968.39
2016-07-17T01:50:09.216Z,968.38
2016-07-17T01:51:09.220Z,968.35
2016-07-17T01:52:09.231Z,968.36
2016-07-17T01:53:09.245Z,968.41
2016-07-17T01:54:09.246Z,968.4
2016-07-17T01:55:09.259Z,968.41
2016-07-17T01:56:09.270Z,968.41
2016-07-17T01:57:09.269Z,968.41
2016-07-17T01:58:09.276Z,968.37
2016-07-17T01:59:09.294Z,968.37
2016-07-17T02:00:09.299Z,968.34
2016-07-17T02:01:09.306Z,968.35
2016-07-17T02:02:09.315Z,968.32
2016-07-17T02:03:09.317Z,968.3
2016-07-17T02:04:09.328Z,968.31
2016-07-17T02:05:09.338Z,968.33
2016-07-17T02:06:09.342Z,968.3
2016-07-17T02:07:09.347Z,968.27
2016-07-17T02:08:09.356Z,968.25
2016-07-17T02:09:09.370Z,968.25
2016-07-17T02:10:09.378Z,968.26
2016-07-17T02:11:09.387Z,968.27
2016-07-17T02:12:09.391Z,968.31
2016-07-17T02:13:09.396Z,968.29
2016-07-17T02:14:09.411Z,968.32
2016-07-17T02:15:09.413Z,968.3
2016-07-17T02:16:09.420Z,968.31
2016-07-17T02:17:09.428Z,968.33
2016-07-17T02:18:09.436Z,968.33
2016-07-17T02:19:09.443Z,968.3
2016-07-17T02:20:09.458Z,968.29
2016-07-17T02:21:09.460Z,968.3
2016-07-17T02:22:09.473Z,968.31
2016-07-17T02:23:09.481Z,968.25
2016-07-17T02:24:09.484Z,968.27
2016-07-17T02:25:09.498Z,968.29
2016-07-17T02:26:09.500Z,968.24
2016-07-17T02:27:09.506Z,968.21
2016-07-17T02:28:09.513Z,968.23
2016-07-17T02:29:09.522Z,968.25
2016-07-17T02:30:09.538Z,968.25
2016-07-17T02:31:09.545Z,968.26
2016-07-17T02:32:09.545Z,968.26
2016-07-17T02:33:09.555Z,968.24
2016-07-17T02:34:09.560Z,968.24
2016-07-17T02:35:09.580Z,968.27
2016-07-17T02:36:09.581Z,968.27
2016-07-17T02:37:09.584Z,968.27
2016-07-17T02:38:09.594Z,968.27
2016-07-17T02:39:09.609Z,968.28
2016-07-17T02:40:09.617Z,968.28
2016-07-17T02:41:09.616Z,968.28
2016-07-17T02:42:09.632Z,968.33
2016-07-17T02:43:09.640Z,968.27
2016-07-17T02:44:09.657Z,968.3
2016-07-17T02:45:09.647Z,968.26
2016-07-17T02:46:09.663Z,968.24
2016-07-17T02:47:09.667Z,968.21
2016-07-17T02:48:09.679Z,968.24
2016-07-17T02:49:09.688Z,968.24
2016-07-17T02:50:09.694Z,968.17
2016-07-17T02:51:09.692Z,968.19
2016-07-17T02:52:09.706Z,968.22
2016-07-17T02:53:09.713Z,968.21
2016-07-17T02:54:09.727Z,968.22
2016-07-17T02:55:09.735Z,968.28
2016-07-17T02:56:09.751Z,968.26
2016-07-17T02:57:09.749Z,968.28
2016-07-17T02:58:09.759Z,968.26
2016-07-17T02:59:09.758Z,968.31
2016-07-17T03:00:09.765Z,968.34
2016-07-17T03:01:09.782Z,968.3
2016-07-17T03:02:09.791Z,968.33
2016-07-17T03:03:09.797Z,968.34
2016-07-17T03:04:09.803Z,968.35
2016-07-17T03:05:09.806Z,968.34
2016-07-17T03:06:09.821Z,968.37
2016-07-17T03:07:09.829Z,968.32
2016-07-17T03:08:09.839Z,968.38
2016-07-17T03:09:09.844Z,968.38
2016-07-17T03:10:09.855Z,968.39
2016-07-17T03:11:09.861Z,968.4
2016-07-17T03:12:09.863Z,968.42
2016-07-17T03:13:09.868Z,968.41
2016-07-17T03:14:09.883Z,968.44
2016-07-17T03:15:09.894Z,968.44
2016-07-17T03:16:09.899Z,968.47
2016-07-17T03:17:09.910Z,968.42
2016-07-17T03:18:09.906Z,968.4
2016-07-17T03:19:09.922Z,968.41
2016-07-17T03:20:09.923Z,968.42
2016-07-17T03:21:09.938Z,968.41
2016-07-17T03:22:09.941Z,968.38
2016-07-17T03:23:09.950Z,968.42
2016-07-17T03:24:09.955Z,968.42
2016-07-17T03:25:09.969Z,968.4
2016-07-17T03:26:09.980Z,968.42
2016-07-17T03:27:09.987Z,968.42
2016-07-17T03:28:09.988Z,968.43
2016-07-17T03:29:09.996Z,968.44
2016-07-17T03:30:10.004Z,968.41
2016-07-17T03:31:10.018Z,968.44
2016-07-17T03:32:10.027Z,968.45
2016-07-17T03:33:10.027Z,968.43
2016-07-17T03:34:10.043Z,968.4
2016-07-17T03:35:10.043Z,968.36
2016-07-17T03:36:10.056Z,968.34
2016-07-17T03:37:10.058Z,968.36
2016-07-17T03:38:10.075Z,968.35
2016-07-17T03:39:10.078Z,968.37
2016-07-17T03:40:10.083Z,968.37
2016-07-17T03:41:10.091Z,968.36
2016-07-17T03:42:10.097Z,968.36
2016-07-17T03:43:10.114Z,968.37
2016-07-17T03:44:10.117Z,968.36
2016-07-17T03:45:10.123Z,968.36
2016-07-17T03:46:10.129Z,968.35
2016-07-17T03:47:10.144Z,968.36
2016-07-17T03:48:10.147Z,968.37
2016-07-17T03:49:10.151Z,968.38
2016-07-17T03:50:10.169Z,968.43
2016-07-17T03:51:10.165Z,968.43
2016-07-17T03:52:10.178Z,968.45
2016-07-17T03:53:10.182Z,968.47
2016-07-17T03:54:10.190Z,968.51
2016-07-17T03:55:10.200Z,968.5
2016-07-17T03:56:10.215Z,968.54
2016-07-17T03:57:10.224Z,968.55
2016-07-17T03:58:10.224Z,968.53
2016-07-17T03:59:10.238Z,968.54
2016-07-17T04:00:10.238Z,968.52
2016-07-17T04:01:10.302Z,968.51
2016-07-17T04:02:10.256Z,968.55
2016-07-17T04:03:10.266Z,968.57
2016-07-17T04:04:10.269Z,968.56
2016-07-17T04:05:10.279Z,968.57
2016-07-17T04:06:10.294Z,968.54
2016-07-17T04:07:10.303Z,968.56
2016-07-17T04:08:10.302Z,968.6
2016-07-17T04:09:10.320Z,968.6
2016-07-17T04:10:10.325Z,968.64
2016-07-17T04:11:10.334Z,968.62
2016-07-17T04:12:10.334Z,968.62
2016-07-17T04:13:10.340Z,968.63
2016-07-17T04:14:10.358Z,968.65
2016-07-17T04:15:10.366Z,968.64
2016-07-17T04:16:10.362Z,968.59
2016-07-17T04:17:10.373Z,968.62
2016-07-17T04:18:10.387Z,968.59
2016-07-17T04:19:10.391Z,968.55
2016-07-17T04:20:10.401Z,968.61
2016-07-17T04:21:10.411Z,968.61
2016-07-17T04:22:10.419Z,968.58
2016-07-17T04:23:10.422Z,968.58
2016-07-17T04:24:10.428Z,968.57
2016-07-17T04:25:10.442Z,968.56
2016-07-17T04:26:10.453Z,968.59
2016-07-17T04:27:10.452Z,968.56
2016-07-17T04:28:10.465Z,968.53
2016-07-17T04:29:10.468Z,968.55
2016-07-17T04:30:10.483Z,968.55
2016-07-17T04:31:10.493Z,968.52
2016-07-17T04:32:10.497Z,968.52
2016-07-17T04:33:10.505Z,968.54
2016-07-17T04:34:10.507Z,968.53
2016-07-17T04:35:10.516Z,968.51
2016-07-17T04:36:10.530Z,968.51
2016-07-17T04:37:10.538Z,968.48
2016-07-17T04:38:10.539Z,968.5
2016-07-17T04:39:10.550Z,968.54
2016-07-17T04:40:10.552Z,968.54
2016-07-17T04:41:10.567Z,968.52
2016-07-17T04:42:10.576Z,968.56
2016-07-17T04:43:10.585Z,968.57
2016-07-17T04:44:10.593Z,968.55
2016-07-17T04:45:10.593Z,968.58
2016-07-17T04:46:10.611Z,968.57
2016-07-17T04:47:10.611Z,968.53
2016-07-17T04:48:10.624Z,968.52
2016-07-17T04:49:10.625Z,968.52
2016-07-17T04:50:10.638Z,968.52
2016-07-17T04:51:10.649Z,968.58
2016-07-17T04:52:10.656Z,968.55
2016-07-17T04:53:10.663Z,968.58
2016-07-17T04:54:10.666Z,968.61
2016-07-17T04:55:10.673Z,968.64
2016-07-17T04:56:10.687Z,968.63
2016-07-17T04:57:10.689Z,968.64
2016-07-17T04:58:10.696Z,968.62
2016-07-17T04:59:10.701Z,968.65
2016-07-17T05:00:10.712Z,968.66
2016-07-17T05:01:10.728Z,968.64
2016-07-17T05:02:10.736Z,968.66
2016-07-17T05:03:10.752Z,968.66
2016-07-17T05:04:10.748Z,968.68
2016-07-17T05:05:10.750Z,968.71
2016-07-17T05:06:10.756Z,968.66
2016-07-17T05:07:10.768Z,968.68
2016-07-17T05:08:10.780Z,968.68
2016-07-17T05:09:10.783Z,968.67
2016-07-17T05:10:10.790Z,968.68
2016-07-17T05:11:10.797Z,968.69
2016-07-17T05:12:10.807Z,968.68
2016-07-17T05:13:10.821Z,968.68
2016-07-17T05:14:10.827Z,968.68
2016-07-17T05:15:10.837Z,968.73
2016-07-17T05:16:10.844Z,968.72
2016-07-17T05:17:10.845Z,968.72
2016-07-17T05:18:10.856Z,968.73
2016-07-17T05:19:10.866Z,968.77
2016-07-17T05:20:10.882Z,968.72
2016-07-17T05:21:10.877Z,968.7
2016-07-17T05:22:10.883Z,968.68
2016-07-17T05:23:10.898Z,968.73
2016-07-17T05:24:10.907Z,968.72
2016-07-17T05:25:10.909Z,968.74
2016-07-17T05:26:10.922Z,968.73
2016-07-17T05:27:10.923Z,968.72
2016-07-17T05:28:10.953Z,968.72
2016-07-17T05:29:10.955Z,968.75
2016-07-17T05:30:10.946Z,968.73
2016-07-17T05:31:10.965Z,968.73
2016-07-17T05:32:10.967Z,968.79
2016-07-17T05:33:10.971Z,968.76
2016-07-17T05:34:10.975Z,968.8
2016-07-17T05:35:10.992Z,968.8
2016-07-17T05:36:10.993Z,968.82
2016-07-17T05:37:11.001Z,968.82
2016-07-17T05:38:11.017Z,968.86
2016-07-17T05:39:11.026Z,968.82
2016-07-17T05:40:11.034Z,968.81
2016-07-17T05:41:11.033Z,968.81
2016-07-17T05:42:11.036Z,968.8
2016-07-17T05:43:11.055Z,968.81
2016-07-17T05:44:11.062Z,968.82
2016-07-17T05:45:11.070Z,968.82
2016-07-17T05:46:11.078Z,968.83
2016-07-17T05:47:11.078Z,968.84
2016-07-17T05:48:11.085Z,968.8
2016-07-17T05:49:11.094Z,968.81
2016-07-17T05:50:11.105Z,968.81
2016-07-17T05:51:11.113Z,968.8
2016-07-17T05:52:11.119Z,968.81
2016-07-17T05:53:11.126Z,968.84
2016-07-17T05:54:11.133Z,968.85
2016-07-17T05:55:11.141Z,968.85
2016-07-17T05:56:11.149Z,968.85
2016-07-17T05:57:11.166Z,968.82
2016-07-17T05:58:11.167Z,968.81
2016-07-17T05:59:11.180Z,968.84
2016-07-17T06:00:11.183Z,968.82
2016-07-17T06:01:11.194Z,968.83
2016-07-17T06:02:11.198Z,968.85
2016-07-17T06:03:11.211Z,968.88
2016-07-17T06:04:11.213Z,968.87
2016-07-17T06:05:11.221Z,968.83
2016-07-17T06:06:11.235Z,968.86
2016-07-17T06:07:11.243Z,968.89
2016-07-17T06:08:11.252Z,968.91
2016-07-17T06:09:11.252Z,968.92
2016-07-17T06:10:11.261Z,968.94
2016-07-17T06:11:11.275Z,968.91
2016-07-17T06:12:11.273Z,968.91
2016-07-17T06:13:11.289Z,968.91
2016-07-17T06:14:11.303Z,968.94
2016-07-17T06:15:11.294Z,968.9
2016-07-17T06:16:11.305Z,968.93
2016-07-17T06:17:11.314Z,968.93
2016-07-17T06:18:11.333Z,968.94
2016-07-17T06:19:11.329Z,968.95
2016-07-17T06:20:11.337Z,968.98
2016-07-17T06:21:11.352Z,969.02
2016-07-17T06:22:11.353Z,969.02
2016-07-17T06:23:11.370Z,969.03
2016-07-17T06:24:11.376Z,969.02
2016-07-17T06:25:11.384Z,969.01
2016-07-17T06:26:11.390Z,969.01
2016-07-17T06:27:11.395Z,969.03
2016-07-17T06:28:11.402Z,968.98
2016-07-17T06:29:11.410Z,968.99
2016-07-17T06:30:11.425Z,968.95
2016-07-17T06:31:11.423Z,969.03
2016-07-17T06:32:11.439Z,969.03
2016-07-17T06:33:11.448Z,969
2016-07-17T06:34:11.450Z,969.03
2016-07-17T06:35:11.464Z,969.02
2016-07-17T06:36:11.471Z,969.03
2016-07-17T06:37:11.478Z,969.06
2016-07-17T06:38:11.487Z,969.05
2016-07-17T06:39:11.493Z,969.11
2016-07-17T06:40:11.493Z,969.08
2016-07-17T06:41:11.503Z,969.11
2016-07-17T06:42:11.517Z,969.09
2016-07-17T06:43:11.519Z,969.13
2016-07-17T06:44:11.528Z,969.13
2016-07-17T06:45:11.537Z,969.14
2016-07-17T06:46:11.542Z,969.12
2016-07-17T06:47:11.557Z,969.14
2016-07-17T06:48:11.558Z,969.12
2016-07-17T06:49:11.575Z,969.19
2016-07-17T06:50:11.572Z,969.21
2016-07-17T06:51:11.589Z,969.28
2016-07-17T06:52:11.596Z,969.32
2016-07-17T06:53:11.597Z,969.29
2016-07-17T06:54:11.611Z,969.33
2016-07-17T06:55:11.619Z,969.32
2016-07-17T06:56:11.624Z,969.3
2016-07-17T06:57:11.634Z,969.29
2016-07-17T06:58:11.635Z,969.3
2016-07-17T06:59:11.648Z,969.28
2016-07-17T07:00:11.661Z,969.3
2016-07-17T07:01:11.665Z,969.28
2016-07-17T07:02:11.667Z,969.28
2016-07-17T07:03:11.675Z,969.24
2016-07-17T07:04:11.682Z,969.29
2016-07-17T07:05:11.696Z,969.27
2016-07-17T07:06:11.697Z,969.27
2016-07-17T07:07:11.712Z,969.26
2016-07-17T07:08:11.722Z,969.19
2016-07-17T07:09:11.723Z,969.21
2016-07-17T07:10:11.735Z,969.19
2016-07-17T07:11:11.737Z,969.21
2016-07-17T07:12:11.746Z,969.16
2016-07-17T07:13:11.753Z,969.19
2016-07-17T07:14:11.769Z,969.21
2016-07-17T07:15:11.777Z,969.2
2016-07-17T07:16:11.777Z,969.21
2016-07-17T07:17:11.793Z,969.2
2016-07-17T07:18:11.802Z,969.16
2016-07-17T07:19:11.800Z,969.1
2016-07-17T07:20:11.810Z,969.1
2016-07-17T07:21:11.822Z,969.09
2016-07-17T07:22:11.825Z,969.03
2016-07-17T07:23:11.837Z,969.06
2016-07-17T07:24:11.841Z,969.05
2016-07-17T07:25:11.851Z,969.04
2016-07-17T07:26:11.854Z,969.05
2016-07-17T07:27:11.865Z,969.08
2016-07-17T07:28:11.873Z,969.03
2016-07-17T07:29:11.886Z,969.03
2016-07-17T07:30:11.894Z,969.06
2016-07-17T07:31:11.906Z,969.02
2016-07-17T07:32:11.905Z,969.04
2016-07-17T07:33:11.919Z,969.04
2016-07-17T07:34:11.919Z,969.03
2016-07-17T07:35:11.926Z,969
2016-07-17T07:36:11.935Z,969.02
2016-07-17T07:37:11.948Z,969.01
2016-07-17T07:38:11.949Z,969.01
2016-07-17T07:39:11.959Z,969.01
2016-07-17T07:40:11.971Z,969.01
2016-07-17T07:41:11.973Z,968.99
2016-07-17T07:42:11.986Z,968.96
2016-07-17T07:43:11.987Z,968.95
2016-07-17T07:44:11.999Z,968.96
2016-07-17T07:45:12.005Z,968.97
2016-07-17T07:46:12.015Z,968.96
2016-07-17T07:47:12.026Z,968.97
2016-07-17T07:48:12.033Z,968.97
2016-07-17T07:49:12.036Z,968.94
2016-07-17T07:50:12.043Z,968.91
2016-07-17T07:51:12.052Z,968.93
2016-07-17T07:52:12.066Z,968.96
2016-07-17T07:53:12.074Z,968.92
2016-07-17T07:54:12.080Z,968.93
2016-07-17T07:55:12.092Z,968.9
2016-07-17T07:56:12.095Z,968.98
2016-07-17T07:57:12.110Z,968.94
2016-07-17T07:58:12.110Z,968.92
2016-07-17T07:59:12.113Z,968.9
2016-07-17T08:00:12.122Z,968.95
2016-07-17T08:01:12.129Z,968.9
2016-07-17T08:02:12.144Z,968.95
2016-07-17T08:03:12.146Z,968.93
2016-07-17T08:04:12.161Z,968.91
2016-07-17T08:05:12.169Z,968.9
2016-07-17T08:06:12.181Z,968.91
2016-07-17T08:07:12.182Z,968.92
2016-07-17T08:08:12.191Z,968.92
2016-07-17T08:09:12.196Z,968.91
2016-07-17T08:10:12.206Z,968.86
2016-07-17T08:11:12.206Z,968.9
2016-07-17T08:12:12.220Z,968.86
2016-07-17T08:13:12.229Z,968.82
2016-07-17T08:14:12.235Z,968.85
2016-07-17T08:15:12.243Z,968.84
2016-07-17T08:16:12.246Z,968.83
2016-07-17T08:17:12.260Z,968.81
2016-07-17T08:18:12.266Z,968.8
2016-07-17T08:19:12.278Z,968.8
2016-07-17T08:20:12.326Z,968.78
2016-07-17T08:21:12.292Z,968.79
2016-07-17T08:22:12.291Z,968.83
2016-07-17T08:23:12.301Z,968.86
2016-07-17T08:24:12.316Z,968.89
2016-07-17T08:25:12.321Z,968.85
2016-07-17T08:26:12.329Z,968.85
2016-07-17T08:27:12.331Z,968.85
2016-07-17T08:28:12.340Z,968.83
2016-07-17T08:29:12.345Z,968.83
2016-07-17T08:30:12.356Z,968.83
2016-07-17T08:31:12.367Z,968.79
2016-07-17T08:32:12.370Z,968.8
2016-07-17T08:33:12.378Z,968.78
2016-07-17T08:34:12.394Z,968.75
2016-07-17T08:35:12.402Z,968.77
2016-07-17T08:36:12.405Z,968.7
2016-07-17T08:37:12.415Z,968.74
2016-07-17T08:38:12.415Z,968.76
2016-07-17T08:39:12.427Z,968.75
2016-07-17T08:40:12.439Z,968.78
2016-07-17T08:41:12.447Z,968.74
2016-07-17T08:42:12.449Z,968.75
2016-07-17T08:43:12.455Z,968.75
2016-07-17T08:44:12.470Z,968.77
2016-07-17T08:45:12.480Z,968.82
2016-07-17T08:46:12.485Z,968.76
2016-07-17T08:47:12.496Z,968.77
2016-07-17T08:48:12.498Z,968.78
2016-07-17T08:49:12.504Z,968.78
2016-07-17T08:50:12.514Z,968.8
2016-07-17T08:51:12.517Z,968.75
2016-07-17T08:52:12.530Z,968.79
2016-07-17T08:53:12.537Z,968.77
2016-07-17T08:54:12.549Z,968.76
2016-07-17T08:55:12.558Z,968.76
2016-07-17T08:56:12.564Z,968.74
2016-07-17T08:57:12.566Z,968.74
2016-07-17T08:58:12.579Z,968.73
2016-07-17T08:59:12.578Z,968.77
2016-07-17T09:00:12.596Z,968.72
2016-07-17T09:01:12.603Z,968.76
2016-07-17T09:02:12.603Z,968.76
2016-07-17T09:03:12.619Z,968.79
2016-07-17T09:04:12.629Z,968.77
2016-07-17T09:05:12.631Z,968.8
2016-07-17T09:06:12.643Z,968.79
2016-07-17T09:07:12.646Z,968.8
2016-07-17T09:08:12.653Z,968.81
2016-07-17T09:09:12.660Z,968.77
2016-07-17T09:10:12.674Z,968.79
2016-07-17T09:11:12.675Z,968.8
2016-07-17T09:12:12.685Z,968.82
2016-07-17T09:13:12.706Z,968.82
2016-07-17T09:14:12.702Z,968.84
2016-07-17T09:15:12.709Z,968.8
2016-07-17T09:16:12.714Z,968.76
2016-07-17T09:17:12.730Z,968.79
2016-07-17T09:18:12.739Z,968.77
2016-07-17T09:19:12.742Z,968.74
2016-07-17T09:20:12.754Z,968.74
2016-07-17T09:21:12.760Z,968.69
2016-07-17T09:22:12.769Z,968.67
2016-07-17T09:23:12.772Z,968.69
2016-07-17T09:24:12.789Z,968.71
2016-07-17T09:25:12.794Z,968.72
2016-07-17T09:26:12.801Z,968.7
2016-07-17T09:27:12.802Z,968.71
2016-07-17T09:28:12.816Z,968.69
2016-07-17T09:29:12.823Z,968.69
2016-07-17T09:30:12.827Z,968.71
2016-07-17T09:31:12.843Z,968.7
2016-07-17T09:32:12.852Z,968.74
2016-07-17T09:33:12.851Z,968.74
2016-07-17T09:34:12.860Z,968.73
2016-07-17T09:35:12.866Z,968.73
2016-07-17T09:36:12.875Z,968.71
2016-07-17T09:37:12.882Z,968.72
2016-07-17T09:38:12.892Z,968.75
2016-07-17T09:39:12.906Z,968.73
2016-07-17T09:40:12.908Z,968.73
2016-07-17T09:41:12.914Z,968.72
2016-07-17T09:42:12.934Z,968.69
2016-07-17T09:43:12.939Z,968.68
2016-07-17T09:44:12.938Z,968.7
2016-07-17T09:45:12.954Z,968.7
2016-07-17T09:46:12.953Z,968.65
2016-07-17T09:47:12.967Z,968.67
2016-07-17T09:48:12.972Z,968.64
2016-07-17T09:49:12.979Z,968.64
2016-07-17T09:50:12.994Z,968.61
2016-07-17T09:51:12.996Z,968.61
2016-07-17T09:52:13.004Z,968.6
2016-07-17T09:53:13.018Z,968.61
2016-07-17T09:54:13.029Z,968.6
2016-07-17T09:55:13.034Z,968.57
2016-07-17T09:56:13.042Z,968.58
2016-07-17T09:57:13.050Z,968.57
2016-07-17T09:58:13.055Z,968.55
2016-07-17T09:59:13.066Z,968.55
2016-07-17T10:00:13.074Z,968.45
2016-07-17T10:01:13.073Z,968.49
2016-07-17T10:02:13.235Z,968.47
2016-07-17T10:03:13.091Z,968.46
2016-07-17T10:04:13.104Z,968.43
2016-07-17T10:05:13.105Z,968.45
2016-07-17T10:06:13.122Z,968.4
2016-07-17T10:07:13.122Z,968.39
2016-07-17T10:08:13.131Z,968.34
2016-07-17T10:09:13.145Z,968.4
2016-07-17T10:10:13.147Z,968.35
2016-07-17T10:11:13.156Z,968.34
2016-07-17T10:12:13.171Z,968.3
2016-07-17T10:13:13.169Z,968.3
2016-07-17T10:14:13.184Z,968.27
2016-07-17T10:15:13.196Z,968.28
2016-07-17T10:16:13.195Z,968.26
2016-07-17T10:17:13.202Z,968.25
2016-07-17T10:18:13.214Z,968.29
2016-07-17T10:19:13.221Z,968.28
2016-07-17T10:20:13.233Z,968.27
2016-07-17T10:21:13.243Z,968.24
2016-07-17T10:22:13.248Z,968.28
2016-07-17T10:23:13.252Z,968.29
2016-07-17T10:24:13.273Z,968.28
2016-07-17T10:25:13.269Z,968.27
2016-07-17T10:26:13.281Z,968.24
2016-07-17T10:27:13.286Z,968.18
2016-07-17T10:28:13.291Z,968.24
2016-07-17T10:29:13.307Z,968.21
2016-07-17T10:30:13.314Z,968.16
2016-07-17T10:31:13.317Z,968.2
2016-07-17T10:32:13.328Z,968.17
2016-07-17T10:33:13.336Z,968.14
2016-07-17T10:34:13.349Z,968.16
2016-07-17T10:35:13.351Z,968.18
2016-07-17T10:36:13.366Z,968.14
2016-07-17T10:37:13.364Z,968.14
2016-07-17T10:38:13.380Z,968.14
2016-07-17T10:39:13.382Z,968.12
2016-07-17T10:40:13.397Z,968.14
2016-07-17T10:41:13.397Z,968.07
2016-07-17T10:42:13.408Z,968.06
2016-07-17T10:43:13.416Z,968.13
2016-07-17T10:44:13.421Z,968.12
2016-07-17T10:45:13.440Z,968.14
2016-07-17T10:46:13.449Z,968.09
2016-07-17T10:47:13.456Z,968.11
2016-07-17T10:48:13.457Z,968.09
2016-07-17T10:49:13.472Z,968.09
2016-07-17T10:50:13.471Z,968.09
2016-07-17T10:51:13.480Z,968.08
2016-07-17T10:52:13.489Z,968.06
2016-07-17T10:53:13.496Z,968.1
2016-07-17T10:54:13.652Z,968.04
2016-07-17T10:55:13.521Z,968.01
2016-07-17T10:56:13.528Z,968.03
2016-07-17T10:57:13.532Z,968.05
2016-07-17T10:58:13.537Z,968.09
2016-07-17T10:59:13.549Z,968.1
2016-07-17T11:00:13.561Z,968.04
2016-07-17T11:01:13.563Z,968.05
2016-07-17T11:02:13.580Z,968.05
2016-07-17T11:03:13.581Z,968.03
2016-07-17T11:04:13.588Z,968.02
2016-07-17T11:05:13.599Z,968.03
2016-07-17T11:06:13.605Z,968.07
2016-07-17T11:07:13.617Z,968.05
2016-07-17T11:08:13.623Z,968.06
2016-07-17T11:09:13.633Z,968.04
2016-07-17T11:10:13.648Z,968.05
2016-07-17T11:11:13.657Z,968.05
2016-07-17T11:12:13.660Z,968.04
2016-07-17T11:13:13.665Z,968.07
2016-07-17T11:14:13.672Z,968.07
2016-07-17T11:15:13.687Z,968.05
2016-07-17T11:16:13.696Z,968
2016-07-17T11:17:13.698Z,968.02
2016-07-17T11:18:13.713Z,968
2016-07-17T11:19:13.717Z,968
2016-07-17T11:20:13.729Z,967.94
2016-07-17T11:21:13.733Z,967.99
2016-07-17T11:22:13.740Z,968.01
2016-07-17T11:23:13.748Z,968.03
2016-07-17T11:24:13.764Z,968.06
2016-07-17T11:25:13.765Z,968.07
2016-07-17T11:26:13.775Z,968.09
2016-07-17T11:27:13.789Z,968.02
2016-07-17T11:28:13.797Z,968.02
2016-07-17T11:29:13.799Z,968.04
2016-07-17T11:30:13.814Z,968
2016-07-17T11:31:13.816Z,967.98
2016-07-17T11:32:13.832Z,967.98
2016-07-17T11:33:13.840Z,967.95
2016-07-17T11:34:13.841Z,967.99
2016-07-17T11:35:13.850Z,968
2016-07-17T11:36:13.866Z,967.94
2016-07-17T11:37:13.873Z,967.93
2016-07-17T11:38:13.882Z,967.91
2016-07-17T11:39:13.882Z,967.92
2016-07-17T11:40:13.898Z,967.89
2016-07-17T11:41:13.906Z,967.87
2016-07-17T11:42:13.908Z,967.91
2016-07-17T11:43:13.916Z,967.89
2016-07-17T11:44:13.933Z,967.89
2016-07-17T11:45:13.935Z,967.88
2016-07-17T11:46:13.943Z,967.88
2016-07-17T11:47:13.950Z,967.88
2016-07-17T11:48:13.958Z,967.87
2016-07-17T11:49:13.974Z,967.91
2016-07-17T11:50:13.976Z,967.84
2016-07-17T11:51:13.986Z,967.82
2016-07-17T11:52:14.001Z,967.83
2016-07-17T11:53:14.002Z,967.82
2016-07-17T11:54:14.017Z,967.81
2016-07-17T11:55:14.017Z,967.82
2016-07-17T11:56:14.033Z,967.8
2016-07-17T11:57:14.044Z,967.83
2016-07-17T11:58:14.043Z,967.82
2016-07-17T11:59:14.050Z,967.86
2016-07-17T12:00:14.059Z,967.9
2016-07-17T12:01:14.075Z,967.82
2016-07-17T12:02:14.076Z,967.81
2016-07-17T12:03:14.087Z,967.85
2016-07-17T12:04:14.102Z,967.87
2016-07-17T12:05:14.102Z,967.85
2016-07-17T12:06:14.117Z,967.8
2016-07-17T12:07:14.119Z,967.85
2016-07-17T12:08:14.127Z,967.8
2016-07-17T12:09:14.141Z,967.84
2016-07-17T12:10:14.152Z,967.78
2016-07-17T12:11:14.157Z,967.8
2016-07-17T12:12:14.159Z,967.78
2016-07-17T12:13:14.177Z,967.79
2016-07-17T12:14:14.181Z,967.76
2016-07-17T12:15:14.193Z,967.72
2016-07-17T12:16:14.202Z,967.73
2016-07-17T12:17:14.209Z,967.76
2016-07-17T12:18:14.210Z,967.8
2016-07-17T12:19:14.222Z,967.8
2016-07-17T12:20:14.228Z,967.8
2016-07-17T12:21:14.240Z,967.76
2016-07-17T12:22:14.251Z,967.79
2016-07-17T12:23:14.253Z,967.8
2016-07-17T12:24:14.276Z,967.76
2016-07-17T12:25:14.279Z,967.76
2016-07-17T12:26:14.286Z,967.75
2016-07-17T12:27:14.294Z,967.77
2016-07-17T12:28:14.305Z,967.75
2016-07-17T12:29:14.308Z,967.73
2016-07-17T12:30:14.320Z,967.76
2016-07-17T12:31:14.323Z,967.75